sensor_id;sensor_type;location;lat;lon;timestamp;P1;durP1;ratioP1;P2;durP2;ratioP2
54743;SDS011;40639;53.170;6.728;2024-03-23T00:53:49;18.52;;;5.00;;
54743;SDS011;40639;53.170;6.728;2024-03-23T00:56:15;20.70;;;6.60;;
54743;SDS011;40639;53.170;6.728;2024-03-23T00:58:41;22.13;;;6.13;;
54743;SDS011;40639;53.170;6.728;2024-03-23T01:01:07;27.50;;;9.82;;
54743;SDS011;40639;53.170;6.728;2024-03-23T01:03:34;17.95;;;7.10;;
54743;SDS011;40639;53.170;6.728;2024-03-23T01:06:00;23.48;;;7.57;;
54743;SDS011;40639;53.170;6.728;2024-03-23T01:08:26;21.50;;;9.18;;
54743;SDS011;40639;53.170;6.728;2024-03-23T01:10:56;14.55;;;5.57;;
54743;SDS011;40639;53.170;6.728;2024-03-23T01:13:22;24.58;;;11.18;;
54743;SDS011;40639;53.170;6.728;2024-03-23T01:15:49;23.15;;;6.55;;
54743;SDS011;40639;53.170;6.728;2024-03-23T01:18:17;21.90;;;6.50;;
54743;SDS011;40639;53.170;6.728;2024-03-23T01:20:43;19.52;;;6.50;;
54743;SDS011;40639;53.170;6.728;2024-03-23T01:23:09;17.92;;;5.30;;
54743;SDS011;40639;53.170;6.728;2024-03-23T01:25:35;24.15;;;5.82;;
54743;SDS011;40639;53.170;6.728;2024-03-23T01:28:02;18.17;;;5.82;;
54743;SDS011;40639;53.170;6.728;2024-03-23T01:30:29;18.80;;;6.97;;
54743;SDS011;40639;53.170;6.728;2024-03-23T01:32:56;25.75;;;6.97;;
54743;SDS011;40639;53.170;6.728;2024-03-23T01:35:22;21.45;;;8.20;;
54743;SDS011;40639;53.170;6.728;2024-03-23T01:37:48;14.35;;;5.63;;
54743;SDS011;40639;53.170;6.728;2024-03-23T01:40:16;21.40;;;9.65;;
54743;SDS011;40639;53.170;6.728;2024-03-23T01:42:42;23.90;;;7.00;;
54743;SDS011;40639;53.170;6.728;2024-03-23T01:45:08;23.08;;;5.32;;
54743;SDS011;40639;53.170;6.728;2024-03-23T01:47:35;19.65;;;5.03;;
54743;SDS011;40639;53.170;6.728;2024-03-23T01:50:01;24.77;;;12.80;;
54743;SDS011;40639;53.170;6.728;2024-03-23T01:52:27;18.67;;;8.02;;
54743;SDS011;40639;53.170;6.728;2024-03-23T01:54:54;21.85;;;6.28;;
54743;SDS011;40639;53.170;6.728;2024-03-23T01:57:20;22.65;;;8.38;;
54743;SDS011;40639;53.170;6.728;2024-03-23T01:59:46;23.05;;;9.80;;
54743;SDS011;40639;53.170;6.728;2024-03-23T02:02:12;20.55;;;6.65;;
54743;SDS011;40639;53.170;6.728;2024-03-23T02:04:38;25.45;;;9.77;;
54743;SDS011;40639;53.170;6.728;2024-03-23T02:07:07;21.98;;;5.60;;
54743;SDS011;40639;53.170;6.728;2024-03-23T02:09:33;19.23;;;10.95;;
54743;SDS011;40639;53.170;6.728;2024-03-23T02:12:01;22.33;;;9.10;;
54743;SDS011;40639;53.170;6.728;2024-03-23T02:14:27;20.55;;;8.38;;
54743;SDS011;40639;53.170;6.728;2024-03-23T02:16:53;15.75;;;6.20;;
54743;SDS011;40639;53.170;6.728;2024-03-23T02:19:20;23.27;;;8.02;;
54743;SDS011;40639;53.170;6.728;2024-03-23T02:21:46;16.80;;;7.75;;
54743;SDS011;40639;53.170;6.728;2024-03-23T02:24:12;26.33;;;15.98;;
54743;SDS011;40639;53.170;6.728;2024-03-23T02:26:38;21.95;;;8.27;;
54743;SDS011;40639;53.170;6.728;2024-03-23T02:29:04;23.65;;;5.18;;
54743;SDS011;40639;53.170;6.728;2024-03-23T02:31:31;19.75;;;6.63;;
54743;SDS011;40639;53.170;6.728;2024-03-23T02:33:57;20.02;;;7.80;;
54743;SDS011;40639;53.170;6.728;2024-03-23T02:36:23;18.52;;;8.52;;
54743;SDS011;40639;53.170;6.728;2024-03-23T02:38:49;20.23;;;6.95;;
54743;SDS011;40639;53.170;6.728;2024-03-23T02:41:15;20.00;;;7.68;;
54743;SDS011;40639;53.170;6.728;2024-03-23T02:43:48;15.85;;;5.47;;
54743;SDS011;40639;53.170;6.728;2024-03-23T02:46:14;21.98;;;11.18;;
54743;SDS011;40639;53.170;6.728;2024-03-23T02:48:41;21.60;;;9.07;;
54743;SDS011;40639;53.170;6.728;2024-03-23T02:51:07;21.63;;;6.88;;
54743;SDS011;40639;53.170;6.728;2024-03-23T02:53:33;16.73;;;4.70;;
54743;SDS011;40639;53.170;6.728;2024-03-23T02:55:59;18.83;;;6.90;;
54743;SDS011;40639;53.170;6.728;2024-03-23T02:58:25;22.77;;;8.80;;
54743;SDS011;40639;53.170;6.728;2024-03-23T03:00:51;15.75;;;5.38;;
54743;SDS011;40639;53.170;6.728;2024-03-23T03:03:17;21.33;;;6.45;;
54743;SDS011;40639;53.170;6.728;2024-03-23T03:05:44;19.40;;;6.22;;
54743;SDS011;40639;53.170;6.728;2024-03-23T03:08:10;17.45;;;7.22;;
54743;SDS011;40639;53.170;6.728;2024-03-23T03:10:36;22.67;;;6.10;;
54743;SDS011;40639;53.170;6.728;2024-03-23T03:13:02;17.50;;;7.05;;
54743;SDS011;40639;53.170;6.728;2024-03-23T03:15:28;19.75;;;7.40;;
54743;SDS011;40639;53.170;6.728;2024-03-23T03:17:54;16.40;;;5.93;;
54743;SDS011;40639;53.170;6.728;2024-03-23T03:20:20;23.48;;;11.88;;
54743;SDS011;40639;53.170;6.728;2024-03-23T03:22:48;14.00;;;5.88;;
54743;SDS011;40639;53.170;6.728;2024-03-23T03:25:14;12.80;;;5.55;;
54743;SDS011;40639;53.170;6.728;2024-03-23T03:27:40;18.88;;;6.70;;
54743;SDS011;40639;53.170;6.728;2024-03-23T03:30:06;17.33;;;5.43;;
54743;SDS011;40639;53.170;6.728;2024-03-23T03:32:33;15.00;;;5.63;;
54743;SDS011;40639;53.170;6.728;2024-03-23T03:34:59;14.85;;;4.85;;
54743;SDS011;40639;53.170;6.728;2024-03-23T03:37:26;25.45;;;16.23;;
54743;SDS011;40639;53.170;6.728;2024-03-23T03:39:52;13.15;;;5.45;;
54743;SDS011;40639;53.170;6.728;2024-03-23T03:42:18;11.77;;;4.75;;
54743;SDS011;40639;53.170;6.728;2024-03-23T03:44:44;15.40;;;5.75;;
54743;SDS011;40639;53.170;6.728;2024-03-23T03:47:10;13.50;;;7.50;;
54743;SDS011;40639;53.170;6.728;2024-03-23T03:49:36;19.50;;;5.40;;
54743;SDS011;40639;53.170;6.728;2024-03-23T03:52:03;13.40;;;4.38;;
54743;SDS011;40639;53.170;6.728;2024-03-23T03:54:29;16.13;;;5.25;;
54743;SDS011;40639;53.170;6.728;2024-03-23T03:56:55;17.30;;;5.95;;
54743;SDS011;40639;53.170;6.728;2024-03-23T03:59:21;17.98;;;4.95;;
54743;SDS011;40639;53.170;6.728;2024-03-23T04:01:47;16.75;;;6.57;;
54743;SDS011;40639;53.170;6.728;2024-03-23T04:04:13;17.02;;;5.43;;
54743;SDS011;40639;53.170;6.728;2024-03-23T04:06:42;14.43;;;4.97;;
54743;SDS011;40639;53.170;6.728;2024-03-23T04:09:08;16.65;;;7.13;;
54743;SDS011;40639;53.170;6.728;2024-03-23T04:11:35;15.60;;;6.30;;
54743;SDS011;40639;53.170;6.728;2024-03-23T04:14:01;18.20;;;5.90;;
54743;SDS011;40639;53.170;6.728;2024-03-23T04:16:28;15.25;;;4.60;;
54743;SDS011;40639;53.170;6.728;2024-03-23T04:18:54;16.35;;;5.28;;
54743;SDS011;40639;53.170;6.728;2024-03-23T04:21:21;15.40;;;6.03;;
54743;SDS011;40639;53.170;6.728;2024-03-23T04:23:48;15.90;;;5.53;;
54743;SDS011;40639;53.170;6.728;2024-03-23T04:26:14;18.60;;;5.75;;
54743;SDS011;40639;53.170;6.728;2024-03-23T04:28:41;15.07;;;4.28;;
54743;SDS011;40639;53.170;6.728;2024-03-23T04:31:08;15.55;;;5.65;;
54743;SDS011;40639;53.170;6.728;2024-03-23T04:33:34;14.02;;;5.88;;
54743;SDS011;40639;53.170;6.728;2024-03-23T04:36:00;18.55;;;4.57;;
54743;SDS011;40639;53.170;6.728;2024-03-23T04:38:26;14.88;;;7.25;;
54743;SDS011;40639;53.170;6.728;2024-03-23T04:40:56;15.63;;;10.02;;
54743;SDS011;40639;53.170;6.728;2024-03-23T04:43:23;16.33;;;3.35;;
54743;SDS011;40639;53.170;6.728;2024-03-23T04:45:49;13.90;;;4.28;;
54743;SDS011;40639;53.170;6.728;2024-03-23T04:48:15;10.63;;;3.05;;
54743;SDS011;40639;53.170;6.728;2024-03-23T04:50:41;11.98;;;3.17;;
54743;SDS011;40639;53.170;6.728;2024-03-23T04:53:07;19.70;;;9.52;;
54743;SDS011;40639;53.170;6.728;2024-03-23T04:55:34;15.70;;;5.45;;
54743;SDS011;40639;53.170;6.728;2024-03-23T04:58:00;15.73;;;4.38;;
54743;SDS011;40639;53.170;6.728;2024-03-23T05:00:26;16.88;;;3.97;;
54743;SDS011;40639;53.170;6.728;2024-03-23T05:02:52;14.52;;;7.20;;
54743;SDS011;40639;53.170;6.728;2024-03-23T05:05:18;13.98;;;5.45;;
54743;SDS011;40639;53.170;6.728;2024-03-23T05:07:44;18.98;;;4.68;;
54743;SDS011;40639;53.170;6.728;2024-03-23T05:10:11;15.27;;;4.03;;
54743;SDS011;40639;53.170;6.728;2024-03-23T05:12:38;16.15;;;4.45;;
54743;SDS011;40639;53.170;6.728;2024-03-23T05:15:05;12.45;;;3.42;;
54743;SDS011;40639;53.170;6.728;2024-03-23T05:17:33;13.00;;;4.60;;
54743;SDS011;40639;53.170;6.728;2024-03-23T05:19:59;17.42;;;3.33;;
54743;SDS011;40639;53.170;6.728;2024-03-23T05:22:25;17.42;;;9.82;;
54743;SDS011;40639;53.170;6.728;2024-03-23T05:24:52;13.38;;;6.28;;
54743;SDS011;40639;53.170;6.728;2024-03-23T05:27:18;14.63;;;7.00;;
54743;SDS011;40639;53.170;6.728;2024-03-23T05:29:44;18.75;;;7.32;;
54743;SDS011;40639;53.170;6.728;2024-03-23T05:32:12;16.92;;;3.90;;
54743;SDS011;40639;53.170;6.728;2024-03-23T05:34:38;12.65;;;3.75;;
54743;SDS011;40639;53.170;6.728;2024-03-23T05:37:04;12.23;;;3.90;;
54743;SDS011;40639;53.170;6.728;2024-03-23T05:39:31;13.60;;;4.30;;
54743;SDS011;40639;53.170;6.728;2024-03-23T05:41:57;14.85;;;7.80;;
54743;SDS011;40639;53.170;6.728;2024-03-23T05:44:23;13.13;;;4.20;;
54743;SDS011;40639;53.170;6.728;2024-03-23T05:46:49;12.60;;;5.85;;
54743;SDS011;40639;53.170;6.728;2024-03-23T05:49:15;12.73;;;4.03;;
54743;SDS011;40639;53.170;6.728;2024-03-23T05:51:43;8.63;;;3.95;;
54743;SDS011;40639;53.170;6.728;2024-03-23T05:54:09;15.10;;;6.50;;
54743;SDS011;40639;53.170;6.728;2024-03-23T05:56:35;16.60;;;6.10;;
54743;SDS011;40639;53.170;6.728;2024-03-23T05:59:01;16.33;;;3.40;;
54743;SDS011;40639;53.170;6.728;2024-03-23T06:01:28;14.52;;;4.10;;
54743;SDS011;40639;53.170;6.728;2024-03-23T06:03:57;11.95;;;4.78;;
54743;SDS011;40639;53.170;6.728;2024-03-23T06:06:23;14.55;;;5.38;;
54743;SDS011;40639;53.170;6.728;2024-03-23T06:08:50;14.73;;;8.18;;
54743;SDS011;40639;53.170;6.728;2024-03-23T06:11:16;16.92;;;9.55;;
54743;SDS011;40639;53.170;6.728;2024-03-23T06:13:42;16.20;;;6.93;;
54743;SDS011;40639;53.170;6.728;2024-03-23T06:16:08;12.60;;;3.05;;
54743;SDS011;40639;53.170;6.728;2024-03-23T06:18:35;10.13;;;3.00;;
54743;SDS011;40639;53.170;6.728;2024-03-23T06:21:01;9.82;;;2.90;;
54743;SDS011;40639;53.170;6.728;2024-03-23T06:23:28;12.43;;;5.47;;
54743;SDS011;40639;53.170;6.728;2024-03-23T06:25:54;9.60;;;2.25;;
54743;SDS011;40639;53.170;6.728;2024-03-23T06:28:20;8.18;;;2.00;;
54743;SDS011;40639;53.170;6.728;2024-03-23T06:30:46;8.10;;;1.80;;
54743;SDS011;40639;53.170;6.728;2024-03-23T06:33:12;4.80;;;1.88;;
54743;SDS011;40639;53.170;6.728;2024-03-23T06:35:39;6.90;;;1.45;;
54743;SDS011;40639;53.170;6.728;2024-03-23T06:38:06;4.00;;;1.13;;
54743;SDS011;40639;53.170;6.728;2024-03-23T06:40:32;4.30;;;1.20;;
54743;SDS011;40639;53.170;6.728;2024-03-23T06:42:59;3.00;;;1.05;;
54743;SDS011;40639;53.170;6.728;2024-03-23T06:45:25;5.45;;;1.20;;
54743;SDS011;40639;53.170;6.728;2024-03-23T06:47:51;4.80;;;1.40;;
54743;SDS011;40639;53.170;6.728;2024-03-23T06:50:18;6.82;;;3.53;;
54743;SDS011;40639;53.170;6.728;2024-03-23T06:52:44;4.55;;;1.27;;
54743;SDS011;40639;53.170;6.728;2024-03-23T06:55:10;4.10;;;2.67;;
54743;SDS011;40639;53.170;6.728;2024-03-23T06:57:36;4.00;;;1.65;;
54743;SDS011;40639;53.170;6.728;2024-03-23T07:00:12;6.15;;;3.75;;
54743;SDS011;40639;53.170;6.728;2024-03-23T07:02:40;8.20;;;3.67;;
54743;SDS011;40639;53.170;6.728;2024-03-23T07:05:07;8.70;;;4.20;;
54743;SDS011;40639;53.170;6.728;2024-03-23T07:07:39;8.00;;;3.50;;
54743;SDS011;40639;53.170;6.728;2024-03-23T07:10:05;5.90;;;3.15;;
54743;SDS011;40639;53.170;6.728;2024-03-23T07:12:32;10.35;;;4.68;;
54743;SDS011;40639;53.170;6.728;2024-03-23T07:14:58;6.85;;;2.40;;
54743;SDS011;40639;53.170;6.728;2024-03-23T07:17:24;9.45;;;4.05;;
54743;SDS011;40639;53.170;6.728;2024-03-23T07:19:50;8.13;;;2.80;;
54743;SDS011;40639;53.170;6.728;2024-03-23T07:22:16;4.03;;;1.85;;
54743;SDS011;40639;53.170;6.728;2024-03-23T07:24:43;9.20;;;4.30;;
54743;SDS011;40639;53.170;6.728;2024-03-23T07:27:09;6.18;;;2.08;;
54743;SDS011;40639;53.170;6.728;2024-03-23T07:29:36;6.13;;;2.88;;
54743;SDS011;40639;53.170;6.728;2024-03-23T07:32:02;7.43;;;2.95;;
54743;SDS011;40639;53.170;6.728;2024-03-23T07:34:28;8.27;;;1.45;;
54743;SDS011;40639;53.170;6.728;2024-03-23T07:36:54;5.00;;;1.30;;
54743;SDS011;40639;53.170;6.728;2024-03-23T07:39:20;11.43;;;1.83;;
54743;SDS011;40639;53.170;6.728;2024-03-23T07:41:46;3.97;;;1.55;;
54743;SDS011;40639;53.170;6.728;2024-03-23T07:44:13;5.03;;;1.35;;
54743;SDS011;40639;53.170;6.728;2024-03-23T07:46:39;4.55;;;1.13;;
54743;SDS011;40639;53.170;6.728;2024-03-23T07:49:05;3.10;;;0.90;;
54743;SDS011;40639;53.170;6.728;2024-03-23T07:51:31;7.25;;;1.85;;
54743;SDS011;40639;53.170;6.728;2024-03-23T07:53:58;2.30;;;0.93;;
54743;SDS011;40639;53.170;6.728;2024-03-23T07:56:24;4.38;;;0.98;;
54743;SDS011;40639;53.170;6.728;2024-03-23T07:58:51;6.10;;;1.10;;
54743;SDS011;40639;53.170;6.728;2024-03-23T08:01:17;3.15;;;0.90;;
54743;SDS011;40639;53.170;6.728;2024-03-23T08:03:43;5.60;;;1.05;;
54743;SDS011;40639;53.170;6.728;2024-03-23T08:06:13;4.35;;;0.88;;
54743;SDS011;40639;53.170;6.728;2024-03-23T08:08:40;6.20;;;1.40;;
54743;SDS011;40639;53.170;6.728;2024-03-23T08:11:07;3.55;;;1.60;;
54743;SDS011;40639;53.170;6.728;2024-03-23T08:13:33;4.68;;;2.47;;
54743;SDS011;40639;53.170;6.728;2024-03-23T08:16:00;5.55;;;1.42;;
54743;SDS011;40639;53.170;6.728;2024-03-23T08:18:26;2.58;;;1.17;;
54743;SDS011;40639;53.170;6.728;2024-03-23T08:20:59;5.90;;;1.48;;
54743;SDS011;40639;53.170;6.728;2024-03-23T08:23:26;6.60;;;1.40;;
54743;SDS011;40639;53.170;6.728;2024-03-23T08:25:57;8.40;;;2.00;;
54743;SDS011;40639;53.170;6.728;2024-03-23T08:28:23;8.07;;;1.30;;
54743;SDS011;40639;53.170;6.728;2024-03-23T08:30:50;4.72;;;1.70;;
54743;SDS011;40639;53.170;6.728;2024-03-23T08:33:16;13.05;;;1.98;;
54743;SDS011;40639;53.170;6.728;2024-03-23T08:35:42;6.80;;;1.58;;
54743;SDS011;40639;53.170;6.728;2024-03-23T08:38:17;8.38;;;1.88;;
54743;SDS011;40639;53.170;6.728;2024-03-23T08:40:46;5.68;;;2.08;;
54743;SDS011;40639;53.170;6.728;2024-03-23T08:43:18;5.68;;;2.22;;
54743;SDS011;40639;53.170;6.728;2024-03-23T08:48:50;4.07;;;1.55;;
54743;SDS011;40639;53.170;6.728;2024-03-23T08:51:28;5.15;;;1.60;;
54743;SDS011;40639;53.170;6.728;2024-03-23T08:54:22;6.43;;;1.90;;
54743;SDS011;40639;53.170;6.728;2024-03-23T09:05:57;5.38;;;1.90;;
54743;SDS011;40639;53.170;6.728;2024-03-23T09:09:14;5.10;;;1.50;;
54743;SDS011;40639;53.170;6.728;2024-03-23T09:11:55;8.70;;;2.35;;
54743;SDS011;40639;53.170;6.728;2024-03-23T09:14:42;6.07;;;1.85;;
54743;SDS011;40639;53.170;6.728;2024-03-23T09:29:25;5.78;;;2.10;;
54743;SDS011;40639;53.170;6.728;2024-03-23T09:32:02;12.30;;;2.60;;
54743;SDS011;40639;53.170;6.728;2024-03-23T09:34:44;7.13;;;2.22;;
54743;SDS011;40639;53.170;6.728;2024-03-23T09:37:29;8.25;;;1.98;;
54743;SDS011;40639;53.170;6.728;2024-03-23T09:40:04;8.73;;;2.50;;
54743;SDS011;40639;53.170;6.728;2024-03-23T09:43:11;11.13;;;2.20;;
54743;SDS011;40639;53.170;6.728;2024-03-23T09:45:55;7.53;;;1.70;;
54743;SDS011;40639;53.170;6.728;2024-03-23T09:48:31;10.05;;;2.30;;
54743;SDS011;40639;53.170;6.728;2024-03-23T09:54:41;4.32;;;1.30;;
54743;SDS011;40639;53.170;6.728;2024-03-23T09:57:16;6.88;;;1.50;;
54743;SDS011;40639;53.170;6.728;2024-03-23T10:03:16;10.43;;;2.05;;
54743;SDS011;40639;53.170;6.728;2024-03-23T10:05:58;5.57;;;1.25;;
54743;SDS011;40639;53.170;6.728;2024-03-23T10:08:53;5.28;;;0.90;;
54743;SDS011;40639;53.170;6.728;2024-03-23T10:11:25;4.03;;;1.05;;
54743;SDS011;40639;53.170;6.728;2024-03-23T10:16:51;5.03;;;1.10;;
54743;SDS011;40639;53.170;6.728;2024-03-23T10:19:55;4.45;;;1.50;;
54743;SDS011;40639;53.170;6.728;2024-03-23T10:22:43;4.57;;;1.40;;
54743;SDS011;40639;53.170;6.728;2024-03-23T10:25:34;6.18;;;1.13;;
54743;SDS011;40639;53.170;6.728;2024-03-23T10:28:02;6.35;;;1.23;;
54743;SDS011;40639;53.170;6.728;2024-03-23T10:33:57;7.03;;;1.80;;
54743;SDS011;40639;53.170;6.728;2024-03-23T10:36:26;8.68;;;1.80;;
54743;SDS011;40639;53.170;6.728;2024-03-23T10:38:53;8.52;;;1.92;;
54743;SDS011;40639;53.170;6.728;2024-03-23T10:41:19;9.30;;;1.77;;
54743;SDS011;40639;53.170;6.728;2024-03-23T10:43:46;5.53;;;1.67;;
54743;SDS011;40639;53.170;6.728;2024-03-23T10:46:12;6.07;;;1.70;;
54743;SDS011;40639;53.170;6.728;2024-03-23T10:48:39;7.70;;;1.75;;
54743;SDS011;40639;53.170;6.728;2024-03-23T10:51:06;9.52;;;1.85;;
54743;SDS011;40639;53.170;6.728;2024-03-23T10:53:33;4.93;;;1.27;;
54743;SDS011;40639;53.170;6.728;2024-03-23T10:55:59;2.25;;;0.80;;
54743;SDS011;40639;53.170;6.728;2024-03-23T10:58:30;3.33;;;0.90;;
54743;SDS011;40639;53.170;6.728;2024-03-23T11:00:57;4.80;;;0.80;;
54743;SDS011;40639;53.170;6.728;2024-03-23T11:03:36;3.95;;;1.20;;
54743;SDS011;40639;53.170;6.728;2024-03-23T11:06:03;5.38;;;1.15;;
54743;SDS011;40639;53.170;6.728;2024-03-23T11:08:30;6.85;;;1.50;;
54743;SDS011;40639;53.170;6.728;2024-03-23T11:13:41;6.85;;;1.50;;
54743;SDS011;40639;53.170;6.728;2024-03-23T11:16:17;7.00;;;1.80;;
54743;SDS011;40639;53.170;6.728;2024-03-23T11:18:47;9.93;;;1.70;;
54743;SDS011;40639;53.170;6.728;2024-03-23T11:24:14;4.72;;;1.30;;
54743;SDS011;40639;53.170;6.728;2024-03-23T11:26:40;7.65;;;1.25;;
54743;SDS011;40639;53.170;6.728;2024-03-23T11:29:13;4.95;;;1.55;;
54743;SDS011;40639;53.170;6.728;2024-03-23T11:31:45;7.38;;;1.52;;
54743;SDS011;40639;53.170;6.728;2024-03-23T11:34:11;5.80;;;1.67;;
54743;SDS011;40639;53.170;6.728;2024-03-23T11:36:38;3.70;;;1.10;;
54743;SDS011;40639;53.170;6.728;2024-03-23T11:39:16;4.75;;;1.63;;
54743;SDS011;40639;53.170;6.728;2024-03-23T11:41:46;5.80;;;1.40;;
54743;SDS011;40639;53.170;6.728;2024-03-23T11:44:16;4.45;;;1.50;;
54743;SDS011;40639;53.170;6.728;2024-03-23T11:46:42;5.70;;;1.50;;
54743;SDS011;40639;53.170;6.728;2024-03-23T11:49:24;11.25;;;1.63;;
54743;SDS011;40639;53.170;6.728;2024-03-23T11:51:51;5.32;;;1.50;;
54743;SDS011;40639;53.170;6.728;2024-03-23T11:54:25;4.43;;;1.20;;
54743;SDS011;40639;53.170;6.728;2024-03-23T11:56:59;7.70;;;1.50;;
54743;SDS011;40639;53.170;6.728;2024-03-23T11:59:32;7.07;;;1.30;;
54743;SDS011;40639;53.170;6.728;2024-03-23T12:01:58;5.35;;;1.17;;
54743;SDS011;40639;53.170;6.728;2024-03-23T12:04:25;5.28;;;1.50;;
54743;SDS011;40639;53.170;6.728;2024-03-23T12:07:08;5.10;;;1.13;;
54743;SDS011;40639;53.170;6.728;2024-03-23T12:09:34;5.55;;;1.52;;
54743;SDS011;40639;53.170;6.728;2024-03-23T12:14:33;2.78;;;1.10;;
54743;SDS011;40639;53.170;6.728;2024-03-23T12:17:11;5.07;;;1.00;;
54743;SDS011;40639;53.170;6.728;2024-03-23T12:19:38;4.50;;;1.55;;
54743;SDS011;40639;53.170;6.728;2024-03-23T12:22:05;3.08;;;1.63;;
54743;SDS011;40639;53.170;6.728;2024-03-23T12:24:32;3.80;;;1.10;;
54743;SDS011;40639;53.170;6.728;2024-03-23T12:27:02;4.85;;;0.80;;
54743;SDS011;40639;53.170;6.728;2024-03-23T12:29:31;5.50;;;1.50;;
54743;SDS011;40639;53.170;6.728;2024-03-23T12:32:01;5.68;;;1.10;;
54743;SDS011;40639;53.170;6.728;2024-03-23T12:34:28;4.32;;;1.10;;
54743;SDS011;40639;53.170;6.728;2024-03-23T12:36:57;2.17;;;0.70;;
54743;SDS011;40639;53.170;6.728;2024-03-23T12:39:23;4.32;;;1.10;;
54743;SDS011;40639;53.170;6.728;2024-03-23T12:41:49;4.10;;;1.17;;
54743;SDS011;40639;53.170;6.728;2024-03-23T12:44:17;3.33;;;1.00;;
54743;SDS011;40639;53.170;6.728;2024-03-23T12:46:44;2.28;;;1.00;;
54743;SDS011;40639;53.170;6.728;2024-03-23T12:49:10;7.45;;;1.45;;
54743;SDS011;40639;53.170;6.728;2024-03-23T12:51:37;4.15;;;1.00;;
54743;SDS011;40639;53.170;6.728;2024-03-23T12:54:03;3.88;;;0.95;;
54743;SDS011;40639;53.170;6.728;2024-03-23T12:56:29;3.10;;;1.08;;
54743;SDS011;40639;53.170;6.728;2024-03-23T12:58:56;6.07;;;1.20;;
54743;SDS011;40639;53.170;6.728;2024-03-23T13:01:25;4.07;;;0.65;;
54743;SDS011;40639;53.170;6.728;2024-03-23T13:03:52;3.08;;;0.88;;
54743;SDS011;40639;53.170;6.728;2024-03-23T13:06:18;6.30;;;0.90;;
54743;SDS011;40639;53.170;6.728;2024-03-23T13:08:45;6.68;;;1.42;;
54743;SDS011;40639;53.170;6.728;2024-03-23T13:11:12;5.82;;;1.52;;
54743;SDS011;40639;53.170;6.728;2024-03-23T13:13:39;5.65;;;1.40;;
54743;SDS011;40639;53.170;6.728;2024-03-23T13:16:07;5.90;;;1.48;;
54743;SDS011;40639;53.170;6.728;2024-03-23T13:18:33;3.05;;;1.35;;
54743;SDS011;40639;53.170;6.728;2024-03-23T13:20:59;6.18;;;1.23;;
54743;SDS011;40639;53.170;6.728;2024-03-23T13:23:25;5.40;;;1.50;;
54743;SDS011;40639;53.170;6.728;2024-03-23T13:25:52;5.38;;;0.95;;
54743;SDS011;40639;53.170;6.728;2024-03-23T13:28:22;4.15;;;0.90;;
54743;SDS011;40639;53.170;6.728;2024-03-23T13:33:17;1.88;;;0.80;;
54743;SDS011;40639;53.170;6.728;2024-03-23T13:35:53;4.03;;;1.25;;
54743;SDS011;40639;53.170;6.728;2024-03-23T13:38:20;6.15;;;1.35;;
54743;SDS011;40639;53.170;6.728;2024-03-23T13:43:16;4.13;;;1.40;;
54743;SDS011;40639;53.170;6.728;2024-03-23T13:45:42;6.07;;;1.50;;
54743;SDS011;40639;53.170;6.728;2024-03-23T13:48:08;5.65;;;1.73;;
54743;SDS011;40639;53.170;6.728;2024-03-23T13:50:34;3.33;;;1.35;;
54743;SDS011;40639;53.170;6.728;2024-03-23T13:53:01;7.00;;;1.80;;
54743;SDS011;40639;53.170;6.728;2024-03-23T13:55:27;7.53;;;1.52;;
54743;SDS011;40639;53.170;6.728;2024-03-23T13:57:53;13.00;;;1.67;;
54743;SDS011;40639;53.170;6.728;2024-03-23T14:00:19;6.20;;;1.92;;
54743;SDS011;40639;53.170;6.728;2024-03-23T14:02:45;13.55;;;2.17;;
54743;SDS011;40639;53.170;6.728;2024-03-23T14:05:12;8.48;;;2.47;;
54743;SDS011;40639;53.170;6.728;2024-03-23T14:07:38;5.53;;;1.80;;
54743;SDS011;40639;53.170;6.728;2024-03-23T14:10:04;6.50;;;1.70;;
54743;SDS011;40639;53.170;6.728;2024-03-23T14:12:37;9.40;;;1.45;;
54743;SDS011;40639;53.170;6.728;2024-03-23T14:15:06;6.68;;;1.65;;
54743;SDS011;40639;53.170;6.728;2024-03-23T14:17:32;8.25;;;1.58;;
54743;SDS011;40639;53.170;6.728;2024-03-23T14:19:58;9.73;;;1.83;;
54743;SDS011;40639;53.170;6.728;2024-03-23T14:22:30;5.20;;;2.05;;
54743;SDS011;40639;53.170;6.728;2024-03-23T14:24:57;7.30;;;1.38;;
54743;SDS011;40639;53.170;6.728;2024-03-23T14:27:23;10.02;;;1.70;;
54743;SDS011;40639;53.170;6.728;2024-03-23T14:29:50;6.43;;;1.60;;
54743;SDS011;40639;53.170;6.728;2024-03-23T14:32:16;4.40;;;1.38;;
54743;SDS011;40639;53.170;6.728;2024-03-23T14:34:42;7.38;;;2.20;;
54743;SDS011;40639;53.170;6.728;2024-03-23T14:37:08;6.07;;;1.67;;
54743;SDS011;40639;53.170;6.728;2024-03-23T14:39:34;5.13;;;1.17;;
54743;SDS011;40639;53.170;6.728;2024-03-23T14:42:01;6.47;;;1.50;;
54743;SDS011;40639;53.170;6.728;2024-03-23T14:44:27;8.35;;;1.80;;
54743;SDS011;40639;53.170;6.728;2024-03-23T14:46:54;6.43;;;1.23;;
54743;SDS011;40639;53.170;6.728;2024-03-23T14:49:23;4.00;;;1.33;;
54743;SDS011;40639;53.170;6.728;2024-03-23T14:51:49;9.98;;;1.75;;
54743;SDS011;40639;53.170;6.728;2024-03-23T14:54:16;6.05;;;1.83;;
54743;SDS011;40639;53.170;6.728;2024-03-23T14:56:42;5.68;;;1.40;;
54743;SDS011;40639;53.170;6.728;2024-03-23T14:59:08;11.35;;;2.17;;
54743;SDS011;40639;53.170;6.728;2024-03-23T15:01:34;8.15;;;1.60;;
54743;SDS011;40639;53.170;6.728;2024-03-23T15:04:00;10.32;;;2.22;;
54743;SDS011;40639;53.170;6.728;2024-03-23T15:06:28;10.68;;;2.83;;
54743;SDS011;40639;53.170;6.728;2024-03-23T15:08:54;10.35;;;2.15;;
54743;SDS011;40639;53.170;6.728;2024-03-23T15:11:20;14.73;;;2.55;;
54743;SDS011;40639;53.170;6.728;2024-03-23T15:13:46;8.10;;;1.65;;
54743;SDS011;40639;53.170;6.728;2024-03-23T15:16:18;8.88;;;2.00;;
54743;SDS011;40639;53.170;6.728;2024-03-23T15:18:45;8.48;;;1.95;;
54743;SDS011;40639;53.170;6.728;2024-03-23T15:21:11;5.00;;;1.17;;
54743;SDS011;40639;53.170;6.728;2024-03-23T15:23:40;2.63;;;0.90;;
54743;SDS011;40639;53.170;6.728;2024-03-23T15:26:08;7.43;;;1.20;;
54743;SDS011;40639;53.170;6.728;2024-03-23T15:28:35;6.70;;;1.30;;
54743;SDS011;40639;53.170;6.728;2024-03-23T15:31:20;4.53;;;1.48;;
54743;SDS011;40639;53.170;6.728;2024-03-23T15:33:46;6.38;;;1.60;;
54743;SDS011;40639;53.170;6.728;2024-03-23T15:36:13;6.22;;;1.52;;
54743;SDS011;40639;53.170;6.728;2024-03-23T15:38:39;8.30;;;1.80;;
54743;SDS011;40639;53.170;6.728;2024-03-23T15:41:05;5.07;;;1.60;;
54743;SDS011;40639;53.170;6.728;2024-03-23T15:43:31;7.15;;;1.40;;
54743;SDS011;40639;53.170;6.728;2024-03-23T15:45:58;7.63;;;1.52;;
54743;SDS011;40639;53.170;6.728;2024-03-23T15:48:27;7.65;;;1.48;;
54743;SDS011;40639;53.170;6.728;2024-03-23T15:50:54;7.85;;;1.52;;
54743;SDS011;40639;53.170;6.728;2024-03-23T15:53:21;8.38;;;1.67;;
54743;SDS011;40639;53.170;6.728;2024-03-23T15:55:57;7.60;;;1.88;;
54743;SDS011;40639;53.170;6.728;2024-03-23T15:58:23;7.20;;;1.65;;
54743;SDS011;40639;53.170;6.728;2024-03-23T16:03:22;7.63;;;1.70;;
54743;SDS011;40639;53.170;6.728;2024-03-23T16:05:54;6.38;;;1.55;;
54743;SDS011;40639;53.170;6.728;2024-03-23T16:08:22;6.43;;;1.50;;
54743;SDS011;40639;53.170;6.728;2024-03-23T16:10:48;6.88;;;2.03;;
54743;SDS011;40639;53.170;6.728;2024-03-23T16:13:14;7.60;;;1.77;;
54743;SDS011;40639;53.170;6.728;2024-03-23T16:15:41;7.07;;;1.63;;
54743;SDS011;40639;53.170;6.728;2024-03-23T16:18:07;8.95;;;2.10;;
54743;SDS011;40639;53.170;6.728;2024-03-23T16:20:33;7.88;;;2.13;;
54743;SDS011;40639;53.170;6.728;2024-03-23T16:23:00;11.50;;;1.70;;
54743;SDS011;40639;53.170;6.728;2024-03-23T16:25:26;9.68;;;1.92;;
54743;SDS011;40639;53.170;6.728;2024-03-23T16:27:52;4.97;;;1.20;;
54743;SDS011;40639;53.170;6.728;2024-03-23T16:30:19;8.88;;;2.28;;
54743;SDS011;40639;53.170;6.728;2024-03-23T16:32:46;6.93;;;1.83;;